aviador You're here:

KGXY Decoded Metar

GREELEY/WELD in CO, USA
Report Time2017-09-24 11:56:00
UTC Time2017-09-24 12:02:43
Flight Rules mvfr MVFR
WindCalm
Visibility9999 m
Phenomena:N/A
Clouds:Scattered 020 Hf
Broken 026 Hf
Broken 120 Hf
Expected CloudBase > 400 ft AGL from Temp-Dew spread
Ceiling2,600 ft
Temp08°C (ISA +2)
Dew Point07°C (93% RH)
AAT7.3°C
QNH1015 hPa
Density Alt5,010 ft
Elevation4,659 ft
Report Wrong Elevation
Raw Report
METAR KGXY 241156Z AUTO 00000KT 10SM SCT020 BKN026 BKN120 08/07 A2998
RMK AO2 SLP153 70048 T00780072 10089 20078 53003=

Extra information for KGXY:More info

Metar Taf Metar & Taf Last 4 Metars F.Rules Stats Wind Profile Meteogram Temp Stats Airport Information Weather charts Add Link Nearby VenuesMetar ALERT Operation Metar Decoded Social comments

AIRNAV info for KGXY